sensor_id;sensor_type;location;lat;lon;timestamp;pressure;altitude;pressure_sealevel;temperature;humidity
12073;BME280;6098;49.004;8.372;2022-11-15T00:12:08;100131.13;;;9.91;99.63
12073;BME280;6098;49.004;8.372;2022-11-15T00:26:59;100125.23;;;9.95;99.39
12073;BME280;6098;49.004;8.372;2022-11-15T00:41:52;100121.08;;;9.88;99.49
12073;BME280;6098;49.004;8.372;2022-11-15T00:56:41;100098.54;;;9.90;99.91
12073;BME280;6098;49.004;8.372;2022-11-15T01:11:33;100089.36;;;9.98;100.00
12073;BME280;6098;49.004;8.372;2022-11-15T01:26:23;100085.22;;;10.02;100.00
12073;BME280;6098;49.004;8.372;2022-11-15T01:41:17;100081.91;;;10.07;100.00
12073;BME280;6098;49.004;8.372;2022-11-15T01:56:11;100063.31;;;10.09;100.00
12073;BME280;6098;49.004;8.372;2022-11-15T02:11:01;100042.77;;;10.15;100.00
12073;BME280;6098;49.004;8.372;2022-11-15T02:41:07;100002.95;;;10.17;100.00
12073;BME280;6098;49.004;8.372;2022-11-15T02:55:59;99990.95;;;10.19;100.00
12073;BME280;6098;49.004;8.372;2022-11-15T03:11:18;99988.13;;;10.24;100.00
12073;BME280;6098;49.004;8.372;2022-11-15T03:26:07;99975.09;;;10.29;100.00
12073;BME280;6098;49.004;8.372;2022-11-15T03:41:04;99970.52;;;10.32;100.00
12073;BME280;6098;49.004;8.372;2022-11-15T03:55:55;99971.84;;;10.32;100.00
12073;BME280;6098;49.004;8.372;2022-11-15T04:10:48;99980.05;;;10.36;99.35
12073;BME280;6098;49.004;8.372;2022-11-15T04:25:38;99969.48;;;10.45;98.40
12073;BME280;6098;49.004;8.372;2022-11-15T04:40:34;99967.41;;;10.42;99.24
12073;BME280;6098;49.004;8.372;2022-11-15T04:55:25;99946.42;;;10.37;99.65
12073;BME280;6098;49.004;8.372;2022-11-15T05:10:16;99944.67;;;10.37;99.72
12073;BME280;6098;49.004;8.372;2022-11-15T05:25:07;99934.67;;;10.43;99.86
12073;BME280;6098;49.004;8.372;2022-11-15T05:39:58;99935.62;;;10.42;99.89
12073;BME280;6098;49.004;8.372;2022-11-15T05:54:50;99934.48;;;10.38;99.68
12073;BME280;6098;49.004;8.372;2022-11-15T06:09:41;99938.70;;;10.33;99.54
12073;BME280;6098;49.004;8.372;2022-11-15T06:24:32;99924.16;;;10.32;99.86
12073;BME280;6098;49.004;8.372;2022-11-15T06:39:23;99905.70;;;10.40;99.97
12073;BME280;6098;49.004;8.372;2022-11-15T06:54:14;99912.00;;;10.46;99.72
12073;BME280;6098;49.004;8.372;2022-11-15T07:09:06;99923.45;;;10.47;100.00
12073;BME280;6098;49.004;8.372;2022-11-15T07:23:57;99940.52;;;10.60;99.88
12073;BME280;6098;49.004;8.372;2022-11-15T07:38:48;99941.73;;;10.72;99.01
12073;BME280;6098;49.004;8.372;2022-11-15T07:53:39;99940.67;;;10.86;97.99
12073;BME280;6098;49.004;8.372;2022-11-15T08:08:31;99924.44;;;11.01;97.01
12073;BME280;6098;49.004;8.372;2022-11-15T08:23:24;99926.53;;;11.22;95.99
12073;BME280;6098;49.004;8.372;2022-11-15T08:38:15;99919.07;;;11.47;95.35
12073;BME280;6098;49.004;8.372;2022-11-15T08:53:07;99911.11;;;11.65;94.75
12073;BME280;6098;49.004;8.372;2022-11-15T09:07:58;99910.94;;;11.85;94.29
12073;BME280;6098;49.004;8.372;2022-11-15T09:22:51;99899.38;;;12.04;94.05
12073;BME280;6098;49.004;8.372;2022-11-15T09:37:42;99888.64;;;12.22;94.56
12073;BME280;6098;49.004;8.372;2022-11-15T09:52:34;99884.48;;;12.34;95.20
12073;BME280;6098;49.004;8.372;2022-11-15T10:07:33;99882.45;;;12.38;95.53
12073;BME280;6098;49.004;8.372;2022-11-15T10:22:45;99883.37;;;12.45;94.80
12073;BME280;6098;49.004;8.372;2022-11-15T10:37:42;99867.41;;;12.54;95.95
12073;BME280;6098;49.004;8.372;2022-11-15T10:52:34;99848.94;;;12.67;99.45
12073;BME280;6098;49.004;8.372;2022-11-15T11:07:27;99810.31;;;12.84;99.85
12073;BME280;6098;49.004;8.372;2022-11-15T11:53:04;99723.26;;;13.32;93.57
12073;BME280;6098;49.004;8.372;2022-11-15T12:07:53;99712.55;;;13.32;92.36
12073;BME280;6098;49.004;8.372;2022-11-15T12:38:10;99677.15;;;13.66;91.40
12073;BME280;6098;49.004;8.372;2022-11-15T13:08:43;99624.39;;;14.00;89.55
12073;BME280;6098;49.004;8.372;2022-11-15T13:23:38;99585.42;;;13.98;88.16
12073;BME280;6098;49.004;8.372;2022-11-15T13:38:31;99567.92;;;14.01;87.53
12073;BME280;6098;49.004;8.372;2022-11-15T13:53:22;99550.25;;;14.06;87.46
12073;BME280;6098;49.004;8.372;2022-11-15T14:23:27;99481.77;;;14.01;88.69
12073;BME280;6098;49.004;8.372;2022-11-15T14:38:23;99473.51;;;14.05;88.89
12073;BME280;6098;49.004;8.372;2022-11-15T14:53:16;99451.30;;;13.98;89.72
12073;BME280;6098;49.004;8.372;2022-11-15T15:08:07;99423.80;;;13.98;89.43
12073;BME280;6098;49.004;8.372;2022-11-15T15:22:59;99407.03;;;13.90;90.25
12073;BME280;6098;49.004;8.372;2022-11-15T15:37:50;99390.23;;;13.82;91.15
12073;BME280;6098;49.004;8.372;2022-11-15T15:52:41;99370.70;;;13.76;92.15
12073;BME280;6098;49.004;8.372;2022-11-15T16:07:32;99356.57;;;13.68;93.00
12073;BME280;6098;49.004;8.372;2022-11-15T16:22:24;99333.02;;;13.62;93.20
12073;BME280;6098;49.004;8.372;2022-11-15T16:37:21;99321.03;;;13.62;93.52
12073;BME280;6098;49.004;8.372;2022-11-15T16:52:13;99314.55;;;13.60;93.06
12073;BME280;6098;49.004;8.372;2022-11-15T17:07:04;99291.86;;;13.54;93.22
12073;BME280;6098;49.004;8.372;2022-11-15T17:21:55;99291.45;;;13.47;92.88
12073;BME280;6098;49.004;8.372;2022-11-15T17:36:47;99283.15;;;13.39;94.23
12073;BME280;6098;49.004;8.372;2022-11-15T17:51:37;99286.28;;;13.38;93.14
12073;BME280;6098;49.004;8.372;2022-11-15T18:06:31;99274.41;;;13.37;94.55
12073;BME280;6098;49.004;8.372;2022-11-15T18:21:22;99281.98;;;13.23;96.81
12073;BME280;6098;49.004;8.372;2022-11-15T18:36:15;99264.92;;;13.13;97.82
12073;BME280;6098;49.004;8.372;2022-11-15T18:51:10;99252.92;;;13.00;98.83
12073;BME280;6098;49.004;8.372;2022-11-15T19:06:06;99240.63;;;12.92;99.05
12073;BME280;6098;49.004;8.372;2022-11-15T19:20:56;99239.20;;;12.80;100.00
12073;BME280;6098;49.004;8.372;2022-11-15T19:35:47;99224.64;;;12.72;100.00
12073;BME280;6098;49.004;8.372;2022-11-15T19:50:39;99193.82;;;12.63;100.00
12073;BME280;6098;49.004;8.372;2022-11-15T20:05:30;99208.23;;;12.60;100.00
12073;BME280;6098;49.004;8.372;2022-11-15T20:20:22;99188.54;;;12.56;100.00
12073;BME280;6098;49.004;8.372;2022-11-15T20:35:13;99198.31;;;12.49;100.00
12073;BME280;6098;49.004;8.372;2022-11-15T20:50:05;99172.55;;;12.49;100.00
12073;BME280;6098;49.004;8.372;2022-11-15T21:04:57;99161.28;;;12.46;100.00
12073;BME280;6098;49.004;8.372;2022-11-15T21:19:48;99158.84;;;12.43;100.00
12073;BME280;6098;49.004;8.372;2022-11-15T21:34:40;99148.74;;;12.35;100.00
12073;BME280;6098;49.004;8.372;2022-11-15T21:49:31;99145.30;;;12.33;100.00
12073;BME280;6098;49.004;8.372;2022-11-15T22:04:22;99139.91;;;12.28;100.00
12073;BME280;6098;49.004;8.372;2022-11-15T22:19:14;99129.56;;;12.23;100.00
12073;BME280;6098;49.004;8.372;2022-11-15T22:34:06;99121.27;;;12.22;100.00
12073;BME280;6098;49.004;8.372;2022-11-15T22:48:57;99120.84;;;12.21;100.00
12073;BME280;6098;49.004;8.372;2022-11-15T23:03:48;99101.23;;;12.17;100.00
12073;BME280;6098;49.004;8.372;2022-11-15T23:18:40;99093.45;;;12.14;100.00
12073;BME280;6098;49.004;8.372;2022-11-15T23:33:32;99083.25;;;12.14;100.00
12073;BME280;6098;49.004;8.372;2022-11-15T23:48:47;99094.84;;;12.13;100.00
